sensor_id;sensor_type;location;lat;lon;timestamp;P1;durP1;ratioP1;P2;durP2;ratioP2
16800;SDS011;8518;53.236;10.384;2022-10-28T00:01:18;6.60;;;3.27;;
16800;SDS011;8518;53.236;10.384;2022-10-28T00:03:50;9.67;;;3.50;;
16800;SDS011;8518;53.236;10.384;2022-10-28T00:06:27;6.87;;;3.07;;
16800;SDS011;8518;53.236;10.384;2022-10-28T00:08:58;8.17;;;3.43;;
16800;SDS011;8518;53.236;10.384;2022-10-28T00:11:25;4.27;;;3.10;;
16800;SDS011;8518;53.236;10.384;2022-10-28T00:13:52;7.60;;;3.67;;
16800;SDS011;8518;53.236;10.384;2022-10-28T00:16:22;10.10;;;3.70;;
16800;SDS011;8518;53.236;10.384;2022-10-28T00:18:49;8.40;;;3.40;;
16800;SDS011;8518;53.236;10.384;2022-10-28T00:21:18;5.93;;;3.40;;
16800;SDS011;8518;53.236;10.384;2022-10-28T00:23:46;9.17;;;3.57;;
16800;SDS011;8518;53.236;10.384;2022-10-28T00:26:16;6.80;;;3.37;;
16800;SDS011;8518;53.236;10.384;2022-10-28T00:28:46;6.77;;;3.40;;
16800;SDS011;8518;53.236;10.384;2022-10-28T00:31:17;4.43;;;3.10;;
16800;SDS011;8518;53.236;10.384;2022-10-28T00:33:45;7.77;;;3.00;;
16800;SDS011;8518;53.236;10.384;2022-10-28T00:36:12;10.90;;;3.37;;
16800;SDS011;8518;53.236;10.384;2022-10-28T00:38:43;4.57;;;3.07;;
16800;SDS011;8518;53.236;10.384;2022-10-28T00:41:13;7.17;;;3.30;;
16800;SDS011;8518;53.236;10.384;2022-10-28T00:43:42;8.83;;;3.40;;
16800;SDS011;8518;53.236;10.384;2022-10-28T00:51:31;5.90;;;3.43;;
16800;SDS011;8518;53.236;10.384;2022-10-28T00:53:59;7.20;;;3.40;;
16800;SDS011;8518;53.236;10.384;2022-10-28T00:56:25;8.87;;;3.37;;
16800;SDS011;8518;53.236;10.384;2022-10-28T00:58:55;7.97;;;3.40;;
16800;SDS011;8518;53.236;10.384;2022-10-28T01:01:23;6.97;;;3.73;;
16800;SDS011;8518;53.236;10.384;2022-10-28T01:03:49;5.27;;;3.10;;
16800;SDS011;8518;53.236;10.384;2022-10-28T01:06:15;5.50;;;3.23;;
16800;SDS011;8518;53.236;10.384;2022-10-28T01:08:41;5.40;;;3.10;;
16800;SDS011;8518;53.236;10.384;2022-10-28T01:14:05;4.83;;;2.70;;
16800;SDS011;8518;53.236;10.384;2022-10-28T01:17:00;9.67;;;4.07;;
16800;SDS011;8518;53.236;10.384;2022-10-28T01:27:51;7.27;;;3.63;;
16800;SDS011;8518;53.236;10.384;2022-10-28T01:30:37;6.90;;;3.80;;
16800;SDS011;8518;53.236;10.384;2022-10-28T01:33:28;6.10;;;3.63;;
16800;SDS011;8518;53.236;10.384;2022-10-28T01:36:18;13.40;;;3.60;;
16800;SDS011;8518;53.236;10.384;2022-10-28T01:39:01;8.87;;;3.60;;
16800;SDS011;8518;53.236;10.384;2022-10-28T01:41:53;6.77;;;3.30;;
16800;SDS011;8518;53.236;10.384;2022-10-28T01:47:11;7.70;;;3.50;;
16800;SDS011;8518;53.236;10.384;2022-10-28T01:49:54;6.97;;;3.60;;
16800;SDS011;8518;53.236;10.384;2022-10-28T01:52:27;6.80;;;3.37;;
16800;SDS011;8518;53.236;10.384;2022-10-28T01:55:06;9.07;;;3.23;;
16800;SDS011;8518;53.236;10.384;2022-10-28T01:57:42;7.90;;;3.73;;
16800;SDS011;8518;53.236;10.384;2022-10-28T02:00:10;9.27;;;3.57;;
16800;SDS011;8518;53.236;10.384;2022-10-28T02:02:36;6.07;;;3.17;;
16800;SDS011;8518;53.236;10.384;2022-10-28T02:11:33;6.13;;;3.20;;
16800;SDS011;8518;53.236;10.384;2022-10-28T02:13:54;7.43;;;3.50;;
16800;SDS011;8518;53.236;10.384;2022-10-28T02:18:59;9.93;;;3.57;;
16800;SDS011;8518;53.236;10.384;2022-10-28T02:24:31;6.13;;;3.50;;
16800;SDS011;8518;53.236;10.384;2022-10-28T02:27:21;8.50;;;3.50;;
16800;SDS011;8518;53.236;10.384;2022-10-28T02:29:57;6.30;;;3.40;;
16800;SDS011;8518;53.236;10.384;2022-10-28T02:32:28;6.97;;;3.53;;
16800;SDS011;8518;53.236;10.384;2022-10-28T02:34:58;7.93;;;3.13;;
16800;SDS011;8518;53.236;10.384;2022-10-28T02:37:27;5.23;;;3.33;;
16800;SDS011;8518;53.236;10.384;2022-10-28T02:39:57;8.13;;;3.40;;
16800;SDS011;8518;53.236;10.384;2022-10-28T02:42:27;6.37;;;3.50;;
16800;SDS011;8518;53.236;10.384;2022-10-28T02:44:57;8.30;;;3.40;;
16800;SDS011;8518;53.236;10.384;2022-10-28T02:47:30;5.37;;;2.80;;
16800;SDS011;8518;53.236;10.384;2022-10-28T02:50:00;4.80;;;2.97;;
16800;SDS011;8518;53.236;10.384;2022-10-28T02:52:30;7.60;;;3.43;;
16800;SDS011;8518;53.236;10.384;2022-10-28T02:55:01;5.73;;;3.37;;
16800;SDS011;8518;53.236;10.384;2022-10-28T02:57:30;6.47;;;3.10;;
16800;SDS011;8518;53.236;10.384;2022-10-28T02:59:59;6.07;;;3.33;;
16800;SDS011;8518;53.236;10.384;2022-10-28T03:02:29;10.70;;;3.40;;
16800;SDS011;8518;53.236;10.384;2022-10-28T03:04:54;6.13;;;3.17;;
16800;SDS011;8518;53.236;10.384;2022-10-28T03:07:20;6.40;;;2.97;;
16800;SDS011;8518;53.236;10.384;2022-10-28T03:09:46;10.30;;;3.70;;
16800;SDS011;8518;53.236;10.384;2022-10-28T03:12:11;6.77;;;3.13;;
16800;SDS011;8518;53.236;10.384;2022-10-28T03:14:37;7.23;;;3.40;;
16800;SDS011;8518;53.236;10.384;2022-10-28T03:17:03;5.07;;;3.13;;
16800;SDS011;8518;53.236;10.384;2022-10-28T03:19:29;8.03;;;3.60;;
16800;SDS011;8518;53.236;10.384;2022-10-28T03:21:54;7.50;;;3.23;;
16800;SDS011;8518;53.236;10.384;2022-10-28T03:24:20;11.80;;;3.53;;
16800;SDS011;8518;53.236;10.384;2022-10-28T03:26:45;8.97;;;4.03;;
16800;SDS011;8518;53.236;10.384;2022-10-28T03:29:11;10.13;;;3.63;;
16800;SDS011;8518;53.236;10.384;2022-10-28T03:31:37;10.37;;;4.37;;
16800;SDS011;8518;53.236;10.384;2022-10-28T03:34:02;5.90;;;3.67;;
16800;SDS011;8518;53.236;10.384;2022-10-28T03:36:28;10.97;;;4.07;;
16800;SDS011;8518;53.236;10.384;2022-10-28T03:38:53;7.17;;;3.90;;
16800;SDS011;8518;53.236;10.384;2022-10-28T03:41:19;7.47;;;3.60;;
16800;SDS011;8518;53.236;10.384;2022-10-28T03:43:44;8.07;;;4.30;;
16800;SDS011;8518;53.236;10.384;2022-10-28T03:46:10;8.87;;;3.77;;
16800;SDS011;8518;53.236;10.384;2022-10-28T03:48:36;7.17;;;3.87;;
16800;SDS011;8518;53.236;10.384;2022-10-28T03:51:02;7.63;;;4.10;;
16800;SDS011;8518;53.236;10.384;2022-10-28T03:53:27;9.30;;;3.80;;
16800;SDS011;8518;53.236;10.384;2022-10-28T03:55:57;8.07;;;3.57;;
16800;SDS011;8518;53.236;10.384;2022-10-28T03:58:24;6.67;;;4.17;;
16800;SDS011;8518;53.236;10.384;2022-10-28T04:00:50;8.73;;;3.83;;
16800;SDS011;8518;53.236;10.384;2022-10-28T04:03:18;7.70;;;4.13;;
16800;SDS011;8518;53.236;10.384;2022-10-28T04:05:44;9.27;;;3.97;;
16800;SDS011;8518;53.236;10.384;2022-10-28T04:08:12;7.00;;;3.57;;
16800;SDS011;8518;53.236;10.384;2022-10-28T04:10:38;9.30;;;4.07;;
16800;SDS011;8518;53.236;10.384;2022-10-28T04:13:04;12.33;;;4.30;;
16800;SDS011;8518;53.236;10.384;2022-10-28T04:15:30;12.20;;;4.07;;
16800;SDS011;8518;53.236;10.384;2022-10-28T04:17:56;7.10;;;3.70;;
16800;SDS011;8518;53.236;10.384;2022-10-28T04:20:23;8.23;;;4.27;;
16800;SDS011;8518;53.236;10.384;2022-10-28T04:22:49;9.00;;;3.80;;
16800;SDS011;8518;53.236;10.384;2022-10-28T04:25:15;11.00;;;4.10;;
16800;SDS011;8518;53.236;10.384;2022-10-28T04:27:42;9.27;;;4.30;;
16800;SDS011;8518;53.236;10.384;2022-10-28T04:30:09;7.50;;;3.37;;
16800;SDS011;8518;53.236;10.384;2022-10-28T04:32:37;10.13;;;4.10;;
16800;SDS011;8518;53.236;10.384;2022-10-28T04:35:03;6.60;;;3.90;;
16800;SDS011;8518;53.236;10.384;2022-10-28T04:37:29;6.23;;;4.20;;
16800;SDS011;8518;53.236;10.384;2022-10-28T04:39:54;8.40;;;4.17;;
16800;SDS011;8518;53.236;10.384;2022-10-28T04:42:21;6.90;;;4.17;;
16800;SDS011;8518;53.236;10.384;2022-10-28T04:44:47;8.40;;;3.90;;
16800;SDS011;8518;53.236;10.384;2022-10-28T04:47:13;10.30;;;4.20;;
16800;SDS011;8518;53.236;10.384;2022-10-28T04:49:38;5.50;;;4.10;;
16800;SDS011;8518;53.236;10.384;2022-10-28T04:52:04;7.33;;;4.10;;
16800;SDS011;8518;53.236;10.384;2022-10-28T04:54:30;6.17;;;3.93;;
16800;SDS011;8518;53.236;10.384;2022-10-28T04:56:55;6.30;;;3.70;;
16800;SDS011;8518;53.236;10.384;2022-10-28T04:59:21;9.63;;;3.93;;
16800;SDS011;8518;53.236;10.384;2022-10-28T05:01:47;7.20;;;4.03;;
16800;SDS011;8518;53.236;10.384;2022-10-28T05:04:12;9.17;;;4.17;;
16800;SDS011;8518;53.236;10.384;2022-10-28T05:06:38;7.50;;;4.00;;
16800;SDS011;8518;53.236;10.384;2022-10-28T05:09:03;8.67;;;4.40;;
16800;SDS011;8518;53.236;10.384;2022-10-28T05:11:29;11.77;;;4.70;;
16800;SDS011;8518;53.236;10.384;2022-10-28T05:13:55;8.43;;;4.50;;
16800;SDS011;8518;53.236;10.384;2022-10-28T05:16:20;8.77;;;4.17;;
16800;SDS011;8518;53.236;10.384;2022-10-28T05:18:46;6.43;;;3.90;;
16800;SDS011;8518;53.236;10.384;2022-10-28T05:21:12;8.80;;;4.00;;
16800;SDS011;8518;53.236;10.384;2022-10-28T05:23:37;6.60;;;3.90;;
16800;SDS011;8518;53.236;10.384;2022-10-28T05:26:03;9.87;;;4.00;;
16800;SDS011;8518;53.236;10.384;2022-10-28T05:28:29;8.70;;;4.13;;
16800;SDS011;8518;53.236;10.384;2022-10-28T05:30:55;7.13;;;4.23;;
16800;SDS011;8518;53.236;10.384;2022-10-28T05:33:20;11.33;;;4.03;;
16800;SDS011;8518;53.236;10.384;2022-10-28T05:35:46;7.07;;;3.93;;
16800;SDS011;8518;53.236;10.384;2022-10-28T05:38:12;9.03;;;4.03;;
16800;SDS011;8518;53.236;10.384;2022-10-28T05:40:38;8.03;;;4.37;;
16800;SDS011;8518;53.236;10.384;2022-10-28T05:43:04;8.90;;;4.40;;
16800;SDS011;8518;53.236;10.384;2022-10-28T05:45:29;11.47;;;4.30;;
16800;SDS011;8518;53.236;10.384;2022-10-28T05:47:55;8.20;;;4.30;;
16800;SDS011;8518;53.236;10.384;2022-10-28T05:50:21;6.90;;;4.27;;
16800;SDS011;8518;53.236;10.384;2022-10-28T05:52:51;8.50;;;4.37;;
16800;SDS011;8518;53.236;10.384;2022-10-28T05:55:18;10.03;;;4.70;;
16800;SDS011;8518;53.236;10.384;2022-10-28T05:57:46;8.23;;;4.57;;
16800;SDS011;8518;53.236;10.384;2022-10-28T06:00:12;8.80;;;4.43;;
16800;SDS011;8518;53.236;10.384;2022-10-28T06:02:39;7.90;;;4.20;;
16800;SDS011;8518;53.236;10.384;2022-10-28T06:05:05;7.37;;;4.10;;
16800;SDS011;8518;53.236;10.384;2022-10-28T06:07:32;7.80;;;4.23;;
16800;SDS011;8518;53.236;10.384;2022-10-28T06:09:58;11.53;;;4.50;;
16800;SDS011;8518;53.236;10.384;2022-10-28T06:12:24;12.07;;;4.13;;
16800;SDS011;8518;53.236;10.384;2022-10-28T06:14:50;9.87;;;4.43;;
16800;SDS011;8518;53.236;10.384;2022-10-28T06:17:16;10.17;;;4.43;;
16800;SDS011;8518;53.236;10.384;2022-10-28T06:19:41;15.57;;;4.50;;
16800;SDS011;8518;53.236;10.384;2022-10-28T06:22:07;12.43;;;4.27;;
16800;SDS011;8518;53.236;10.384;2022-10-28T06:24:33;10.50;;;4.33;;
16800;SDS011;8518;53.236;10.384;2022-10-28T06:26:58;9.43;;;4.53;;
16800;SDS011;8518;53.236;10.384;2022-10-28T06:29:24;6.47;;;4.30;;
16800;SDS011;8518;53.236;10.384;2022-10-28T06:31:50;8.17;;;4.60;;
16800;SDS011;8518;53.236;10.384;2022-10-28T06:34:15;8.87;;;4.43;;
16800;SDS011;8518;53.236;10.384;2022-10-28T06:36:41;9.00;;;4.43;;
16800;SDS011;8518;53.236;10.384;2022-10-28T06:39:07;7.47;;;3.97;;
16800;SDS011;8518;53.236;10.384;2022-10-28T06:41:33;7.00;;;4.60;;
16800;SDS011;8518;53.236;10.384;2022-10-28T06:43:59;10.40;;;4.33;;
16800;SDS011;8518;53.236;10.384;2022-10-28T06:46:24;6.83;;;4.23;;
16800;SDS011;8518;53.236;10.384;2022-10-28T06:48:52;9.23;;;4.50;;
16800;SDS011;8518;53.236;10.384;2022-10-28T06:51:21;12.30;;;4.50;;
16800;SDS011;8518;53.236;10.384;2022-10-28T06:53:47;8.33;;;4.50;;
16800;SDS011;8518;53.236;10.384;2022-10-28T06:56:16;12.23;;;5.17;;
16800;SDS011;8518;53.236;10.384;2022-10-28T06:58:42;8.17;;;3.97;;
16800;SDS011;8518;53.236;10.384;2022-10-28T07:01:08;6.90;;;3.90;;
16800;SDS011;8518;53.236;10.384;2022-10-28T07:03:34;6.60;;;3.77;;
16800;SDS011;8518;53.236;10.384;2022-10-28T07:06:00;6.93;;;3.30;;
16800;SDS011;8518;53.236;10.384;2022-10-28T07:08:26;8.23;;;3.23;;
16800;SDS011;8518;53.236;10.384;2022-10-28T07:10:58;6.40;;;3.30;;
16800;SDS011;8518;53.236;10.384;2022-10-28T07:13:25;6.57;;;3.33;;
16800;SDS011;8518;53.236;10.384;2022-10-28T07:15:52;10.88;;;3.15;;
16800;SDS011;8518;53.236;10.384;2022-10-28T07:18:18;5.63;;;2.90;;
16800;SDS011;8518;53.236;10.384;2022-10-28T07:20:45;6.55;;;3.08;;
16800;SDS011;8518;53.236;10.384;2022-10-28T07:23:10;8.00;;;3.20;;
16800;SDS011;8518;53.236;10.384;2022-10-28T07:25:37;6.57;;;2.30;;
16800;SDS011;8518;53.236;10.384;2022-10-28T07:28:02;8.63;;;2.67;;
16800;SDS011;8518;53.236;10.384;2022-10-28T07:30:28;4.97;;;2.70;;
16800;SDS011;8518;53.236;10.384;2022-10-28T07:32:54;7.50;;;2.85;;
16800;SDS011;8518;53.236;10.384;2022-10-28T07:35:22;6.28;;;2.70;;
16800;SDS011;8518;53.236;10.384;2022-10-28T07:37:48;6.47;;;2.95;;
16800;SDS011;8518;53.236;10.384;2022-10-28T07:40:13;8.98;;;2.67;;
16800;SDS011;8518;53.236;10.384;2022-10-28T07:42:39;9.60;;;2.83;;
16800;SDS011;8518;53.236;10.384;2022-10-28T07:45:05;7.07;;;2.65;;
16800;SDS011;8518;53.236;10.384;2022-10-28T07:47:31;7.05;;;2.78;;
16800;SDS011;8518;53.236;10.384;2022-10-28T07:49:56;5.80;;;3.03;;
16800;SDS011;8518;53.236;10.384;2022-10-28T07:52:22;6.53;;;2.33;;
16800;SDS011;8518;53.236;10.384;2022-10-28T07:54:49;5.53;;;2.60;;
16800;SDS011;8518;53.236;10.384;2022-10-28T07:57:15;5.50;;;2.55;;
16800;SDS011;8518;53.236;10.384;2022-10-28T07:59:40;8.50;;;2.70;;
16800;SDS011;8518;53.236;10.384;2022-10-28T08:02:06;9.90;;;2.42;;
16800;SDS011;8518;53.236;10.384;2022-10-28T08:04:31;7.65;;;2.53;;
16800;SDS011;8518;53.236;10.384;2022-10-28T08:06:57;5.70;;;2.40;;
16800;SDS011;8518;53.236;10.384;2022-10-28T08:09:23;9.10;;;3.13;;
16800;SDS011;8518;53.236;10.384;2022-10-28T08:11:48;8.45;;;2.80;;
16800;SDS011;8518;53.236;10.384;2022-10-28T08:14:14;7.20;;;2.97;;
16800;SDS011;8518;53.236;10.384;2022-10-28T08:16:40;7.10;;;3.10;;
16800;SDS011;8518;53.236;10.384;2022-10-28T08:19:05;6.93;;;2.60;;
16800;SDS011;8518;53.236;10.384;2022-10-28T08:21:31;7.75;;;2.50;;
16800;SDS011;8518;53.236;10.384;2022-10-28T08:23:57;8.10;;;2.80;;
16800;SDS011;8518;53.236;10.384;2022-10-28T08:26:22;5.18;;;2.42;;
16800;SDS011;8518;53.236;10.384;2022-10-28T08:28:48;6.43;;;2.30;;
16800;SDS011;8518;53.236;10.384;2022-10-28T08:31:14;7.63;;;2.58;;
16800;SDS011;8518;53.236;10.384;2022-10-28T08:33:40;8.57;;;2.45;;
16800;SDS011;8518;53.236;10.384;2022-10-28T08:36:11;6.78;;;2.63;;
16800;SDS011;8518;53.236;10.384;2022-10-28T08:38:39;9.25;;;3.00;;
16800;SDS011;8518;53.236;10.384;2022-10-28T08:49:58;7.53;;;2.70;;
16800;SDS011;8518;53.236;10.384;2022-10-28T08:52:40;8.55;;;2.42;;
16800;SDS011;8518;53.236;10.384;2022-10-28T08:57:48;7.05;;;2.33;;
16800;SDS011;8518;53.236;10.384;2022-10-28T09:00:35;6.13;;;2.40;;
16800;SDS011;8518;53.236;10.384;2022-10-28T09:03:13;8.95;;;2.80;;
16800;SDS011;8518;53.236;10.384;2022-10-28T09:05:41;8.02;;;2.60;;
16800;SDS011;8518;53.236;10.384;2022-10-28T09:08:22;7.13;;;2.78;;
16800;SDS011;8518;53.236;10.384;2022-10-28T09:14:12;6.55;;;2.40;;
16800;SDS011;8518;53.236;10.384;2022-10-28T09:16:38;7.63;;;2.22;;
16800;SDS011;8518;53.236;10.384;2022-10-28T09:19:14;6.30;;;2.25;;
16800;SDS011;8518;53.236;10.384;2022-10-28T09:21:59;7.38;;;2.25;;
16800;SDS011;8518;53.236;10.384;2022-10-28T09:24:29;9.30;;;2.40;;
16800;SDS011;8518;53.236;10.384;2022-10-28T09:32:44;8.77;;;2.50;;
16800;SDS011;8518;53.236;10.384;2022-10-28T09:35:21;7.03;;;2.25;;
16800;SDS011;8518;53.236;10.384;2022-10-28T09:37:58;6.32;;;2.65;;
16800;SDS011;8518;53.236;10.384;2022-10-28T09:40:46;8.90;;;2.20;;
16800;SDS011;8518;53.236;10.384;2022-10-28T09:46:12;7.03;;;2.10;;
16800;SDS011;8518;53.236;10.384;2022-10-28T09:48:49;8.60;;;2.30;;
16800;SDS011;8518;53.236;10.384;2022-10-28T09:53:54;10.05;;;2.58;;
16800;SDS011;8518;53.236;10.384;2022-10-28T09:56:22;7.63;;;2.35;;
16800;SDS011;8518;53.236;10.384;2022-10-28T09:58:49;7.07;;;2.53;;
16800;SDS011;8518;53.236;10.384;2022-10-28T10:01:16;7.93;;;2.40;;
16800;SDS011;8518;53.236;10.384;2022-10-28T10:03:43;6.78;;;2.50;;
16800;SDS011;8518;53.236;10.384;2022-10-28T10:06:12;5.70;;;2.38;;
16800;SDS011;8518;53.236;10.384;2022-10-28T10:08:47;7.97;;;2.67;;
16800;SDS011;8518;53.236;10.384;2022-10-28T10:13:50;6.38;;;2.53;;
16800;SDS011;8518;53.236;10.384;2022-10-28T10:16:17;12.68;;;2.92;;
16800;SDS011;8518;53.236;10.384;2022-10-28T10:18:53;9.85;;;2.50;;
16800;SDS011;8518;53.236;10.384;2022-10-28T10:22:04;7.68;;;2.85;;
16800;SDS011;8518;53.236;10.384;2022-10-28T10:24:33;8.30;;;2.72;;
16800;SDS011;8518;53.236;10.384;2022-10-28T10:27:01;7.32;;;2.67;;
16800;SDS011;8518;53.236;10.384;2022-10-28T10:29:47;8.35;;;2.58;;
16800;SDS011;8518;53.236;10.384;2022-10-28T10:34:43;6.78;;;2.67;;
16800;SDS011;8518;53.236;10.384;2022-10-28T10:37:19;4.97;;;2.60;;
16800;SDS011;8518;53.236;10.384;2022-10-28T10:39:57;9.20;;;2.50;;
16800;SDS011;8518;53.236;10.384;2022-10-28T10:42:31;8.65;;;2.65;;
16800;SDS011;8518;53.236;10.384;2022-10-28T10:45:07;8.02;;;2.70;;
16800;SDS011;8518;53.236;10.384;2022-10-28T10:47:35;9.75;;;2.42;;
16800;SDS011;8518;53.236;10.384;2022-10-28T10:50:22;6.43;;;2.42;;
16800;SDS011;8518;53.236;10.384;2022-10-28T10:52:54;8.75;;;2.80;;
16800;SDS011;8518;53.236;10.384;2022-10-28T10:55:24;7.90;;;2.88;;
16800;SDS011;8518;53.236;10.384;2022-10-28T10:58:02;8.93;;;2.75;;
16800;SDS011;8518;53.236;10.384;2022-10-28T11:00:31;12.05;;;2.97;;
16800;SDS011;8518;53.236;10.384;2022-10-28T11:03:02;8.63;;;2.83;;
16800;SDS011;8518;53.236;10.384;2022-10-28T11:05:30;9.52;;;3.15;;
16800;SDS011;8518;53.236;10.384;2022-10-28T11:07:57;8.52;;;3.00;;
16800;SDS011;8518;53.236;10.384;2022-10-28T11:10:29;6.13;;;2.83;;
16800;SDS011;8518;53.236;10.384;2022-10-28T11:13:22;5.43;;;2.33;;
16800;SDS011;8518;53.236;10.384;2022-10-28T11:16:02;12.77;;;2.70;;
16800;SDS011;8518;53.236;10.384;2022-10-28T11:18:40;8.95;;;2.92;;
16800;SDS011;8518;53.236;10.384;2022-10-28T11:26:08;10.00;;;2.53;;
16800;SDS011;8518;53.236;10.384;2022-10-28T11:29:02;10.70;;;3.20;;
16800;SDS011;8518;53.236;10.384;2022-10-28T11:43:25;12.80;;;3.45;;
16800;SDS011;8518;53.236;10.384;2022-10-28T11:51:57;9.88;;;2.90;;
16800;SDS011;8518;53.236;10.384;2022-10-28T11:57:57;9.50;;;3.00;;
16800;SDS011;8518;53.236;10.384;2022-10-28T12:12:30;7.78;;;3.00;;
16800;SDS011;8518;53.236;10.384;2022-10-28T12:15:13;7.00;;;2.80;;
16800;SDS011;8518;53.236;10.384;2022-10-28T12:18:06;9.93;;;2.90;;
16800;SDS011;8518;53.236;10.384;2022-10-28T12:20:41;11.65;;;2.90;;
16800;SDS011;8518;53.236;10.384;2022-10-28T12:23:16;11.63;;;3.15;;
16800;SDS011;8518;53.236;10.384;2022-10-28T12:25:44;7.07;;;2.78;;
16800;SDS011;8518;53.236;10.384;2022-10-28T12:28:20;8.85;;;3.28;;
16800;SDS011;8518;53.236;10.384;2022-10-28T12:33:48;9.25;;;2.97;;
16800;SDS011;8518;53.236;10.384;2022-10-28T12:39:02;7.68;;;2.65;;
16800;SDS011;8518;53.236;10.384;2022-10-28T12:41:46;6.93;;;2.65;;
16800;SDS011;8518;53.236;10.384;2022-10-28T12:44:35;7.53;;;2.72;;
16800;SDS011;8518;53.236;10.384;2022-10-28T12:52:29;9.52;;;2.97;;
16800;SDS011;8518;53.236;10.384;2022-10-28T12:57:48;8.90;;;2.80;;
16800;SDS011;8518;53.236;10.384;2022-10-28T13:02:50;7.25;;;2.75;;
16800;SDS011;8518;53.236;10.384;2022-10-28T13:05:35;8.95;;;2.75;;
16800;SDS011;8518;53.236;10.384;2022-10-28T13:19:18;5.60;;;2.83;;
16800;SDS011;8518;53.236;10.384;2022-10-28T13:22:23;6.68;;;2.33;;
16800;SDS011;8518;53.236;10.384;2022-10-28T13:28:03;9.25;;;2.90;;
16800;SDS011;8518;53.236;10.384;2022-10-28T13:30:30;10.10;;;3.00;;
16800;SDS011;8518;53.236;10.384;2022-10-28T13:33:04;8.43;;;2.70;;
16800;SDS011;8518;53.236;10.384;2022-10-28T13:35:31;9.60;;;2.63;;
16800;SDS011;8518;53.236;10.384;2022-10-28T13:37:58;10.13;;;3.05;;
16800;SDS011;8518;53.236;10.384;2022-10-28T13:42:58;9.38;;;2.88;;
16800;SDS011;8518;53.236;10.384;2022-10-28T13:53:38;7.47;;;2.80;;
16800;SDS011;8518;53.236;10.384;2022-10-28T13:56:24;9.85;;;2.97;;
16800;SDS011;8518;53.236;10.384;2022-10-28T14:04:18;9.25;;;2.88;;
16800;SDS011;8518;53.236;10.384;2022-10-28T14:06:58;12.57;;;3.38;;
16800;SDS011;8518;53.236;10.384;2022-10-28T14:09:34;11.55;;;2.80;;
16800;SDS011;8518;53.236;10.384;2022-10-28T14:17:40;7.18;;;2.60;;
16800;SDS011;8518;53.236;10.384;2022-10-28T14:22:48;10.57;;;3.50;;
16800;SDS011;8518;53.236;10.384;2022-10-28T14:33:32;10.68;;;3.05;;
16800;SDS011;8518;53.236;10.384;2022-10-28T14:49:22;11.15;;;3.20;;
16800;SDS011;8518;53.236;10.384;2022-10-28T14:51:55;9.40;;;3.03;;
16800;SDS011;8518;53.236;10.384;2022-10-28T14:56:58;13.07;;;3.33;;
16800;SDS011;8518;53.236;10.384;2022-10-28T14:59:37;9.68;;;3.47;;
16800;SDS011;8518;53.236;10.384;2022-10-28T15:04:43;8.43;;;3.25;;
16800;SDS011;8518;53.236;10.384;2022-10-28T15:07:15;12.75;;;3.38;;
16800;SDS011;8518;53.236;10.384;2022-10-28T15:09:43;11.75;;;3.05;;
16800;SDS011;8518;53.236;10.384;2022-10-28T15:12:13;8.20;;;3.80;;
16800;SDS011;8518;53.236;10.384;2022-10-28T15:14:50;12.32;;;3.28;;
16800;SDS011;8518;53.236;10.384;2022-10-28T15:17:21;13.45;;;2.85;;
16800;SDS011;8518;53.236;10.384;2022-10-28T15:19:51;10.93;;;3.10;;
16800;SDS011;8518;53.236;10.384;2022-10-28T15:22:26;8.70;;;3.33;;
16800;SDS011;8518;53.236;10.384;2022-10-28T15:25:04;11.57;;;2.88;;
16800;SDS011;8518;53.236;10.384;2022-10-28T15:27:35;9.95;;;3.08;;
16800;SDS011;8518;53.236;10.384;2022-10-28T15:30:13;12.25;;;3.10;;
16800;SDS011;8518;53.236;10.384;2022-10-28T15:32:47;12.60;;;3.50;;
16800;SDS011;8518;53.236;10.384;2022-10-28T15:37:59;7.30;;;3.25;;
16800;SDS011;8518;53.236;10.384;2022-10-28T15:40:26;13.40;;;3.08;;
16800;SDS011;8518;53.236;10.384;2022-10-28T15:42:56;11.77;;;3.40;;
16800;SDS011;8518;53.236;10.384;2022-10-28T15:45:24;9.63;;;3.15;;
16800;SDS011;8518;53.236;10.384;2022-10-28T15:47:51;12.52;;;3.53;;
16800;SDS011;8518;53.236;10.384;2022-10-28T15:53:18;11.00;;;3.00;;
16800;SDS011;8518;53.236;10.384;2022-10-28T15:58:45;9.43;;;3.42;;
16800;SDS011;8518;53.236;10.384;2022-10-28T16:01:34;9.18;;;3.20;;
16800;SDS011;8518;53.236;10.384;2022-10-28T16:04:04;6.38;;;3.17;;
16800;SDS011;8518;53.236;10.384;2022-10-28T16:06:50;10.45;;;3.33;;
16800;SDS011;8518;53.236;10.384;2022-10-28T16:09:34;9.73;;;3.20;;
16800;SDS011;8518;53.236;10.384;2022-10-28T16:12:19;11.20;;;3.38;;
16800;SDS011;8518;53.236;10.384;2022-10-28T16:14:47;7.95;;;3.05;;
16800;SDS011;8518;53.236;10.384;2022-10-28T16:17:21;10.95;;;3.10;;
16800;SDS011;8518;53.236;10.384;2022-10-28T16:19:52;11.38;;;3.17;;
16800;SDS011;8518;53.236;10.384;2022-10-28T16:22:18;12.52;;;3.50;;
16800;SDS011;8518;53.236;10.384;2022-10-28T16:24:46;10.18;;;3.30;;
16800;SDS011;8518;53.236;10.384;2022-10-28T16:27:17;10.77;;;3.50;;
16800;SDS011;8518;53.236;10.384;2022-10-28T16:29:47;13.52;;;3.63;;
16800;SDS011;8518;53.236;10.384;2022-10-28T16:32:14;7.47;;;3.15;;
16800;SDS011;8518;53.236;10.384;2022-10-28T16:34:41;16.90;;;3.70;;
16800;SDS011;8518;53.236;10.384;2022-10-28T16:37:20;13.73;;;3.45;;
16800;SDS011;8518;53.236;10.384;2022-10-28T16:39:49;18.08;;;3.40;;
16800;SDS011;8518;53.236;10.384;2022-10-28T16:42:15;11.55;;;3.63;;
16800;SDS011;8518;53.236;10.384;2022-10-28T16:44:42;11.27;;;2.97;;
16800;SDS011;8518;53.236;10.384;2022-10-28T16:47:10;15.45;;;3.88;;
16800;SDS011;8518;53.236;10.384;2022-10-28T16:49:37;15.45;;;4.07;;
16800;SDS011;8518;53.236;10.384;2022-10-28T16:52:03;9.55;;;3.58;;
16800;SDS011;8518;53.236;10.384;2022-10-28T16:54:29;8.88;;;3.03;;
16800;SDS011;8518;53.236;10.384;2022-10-28T16:56:55;12.88;;;3.70;;
16800;SDS011;8518;53.236;10.384;2022-10-28T16:59:22;14.15;;;3.90;;
16800;SDS011;8518;53.236;10.384;2022-10-28T17:01:47;13.23;;;3.45;;
16800;SDS011;8518;53.236;10.384;2022-10-28T17:04:13;11.55;;;3.58;;
16800;SDS011;8518;53.236;10.384;2022-10-28T17:06:39;11.38;;;3.70;;
16800;SDS011;8518;53.236;10.384;2022-10-28T17:09:05;7.15;;;3.40;;
16800;SDS011;8518;53.236;10.384;2022-10-28T17:11:30;10.02;;;3.80;;
16800;SDS011;8518;53.236;10.384;2022-10-28T17:13:56;10.60;;;3.50;;
16800;SDS011;8518;53.236;10.384;2022-10-28T17:16:22;11.00;;;4.05;;
16800;SDS011;8518;53.236;10.384;2022-10-28T17:18:48;8.55;;;3.35;;
16800;SDS011;8518;53.236;10.384;2022-10-28T17:21:13;8.73;;;3.40;;
16800;SDS011;8518;53.236;10.384;2022-10-28T17:23:39;12.38;;;3.33;;
16800;SDS011;8518;53.236;10.384;2022-10-28T17:26:05;8.00;;;3.67;;
16800;SDS011;8518;53.236;10.384;2022-10-28T17:28:30;9.88;;;3.53;;
16800;SDS011;8518;53.236;10.384;2022-10-28T17:31:03;7.82;;;3.47;;
16800;SDS011;8518;53.236;10.384;2022-10-28T17:33:29;10.52;;;3.45;;
16800;SDS011;8518;53.236;10.384;2022-10-28T17:35:55;8.35;;;3.22;;
16800;SDS011;8518;53.236;10.384;2022-10-28T17:38:24;13.00;;;3.88;;
16800;SDS011;8518;53.236;10.384;2022-10-28T17:40:53;13.30;;;3.72;;
16800;SDS011;8518;53.236;10.384;2022-10-28T17:43:19;10.00;;;3.65;;
16800;SDS011;8518;53.236;10.384;2022-10-28T17:45:45;11.73;;;3.88;;
16800;SDS011;8518;53.236;10.384;2022-10-28T17:48:10;7.20;;;2.92;;
16800;SDS011;8518;53.236;10.384;2022-10-28T17:50:36;10.40;;;3.38;;
16800;SDS011;8518;53.236;10.384;2022-10-28T17:53:02;7.97;;;3.58;;
16800;SDS011;8518;53.236;10.384;2022-10-28T17:55:27;11.35;;;3.75;;
16800;SDS011;8518;53.236;10.384;2022-10-28T17:57:53;13.77;;;3.55;;
16800;SDS011;8518;53.236;10.384;2022-10-28T18:00:18;12.13;;;3.80;;
16800;SDS011;8518;53.236;10.384;2022-10-28T18:02:44;12.45;;;3.65;;
16800;SDS011;8518;53.236;10.384;2022-10-28T18:05:10;9.98;;;3.90;;
16800;SDS011;8518;53.236;10.384;2022-10-28T18:07:35;8.98;;;3.50;;
16800;SDS011;8518;53.236;10.384;2022-10-28T18:10:01;9.25;;;3.28;;